createdAt,value
2023-02-12T05:15:20.980Z,0.00
2023-02-12T05:16:21.012Z,0.00
2023-02-12T05:17:20.950Z,0.00
2023-02-12T05:18:21.031Z,0.00
2023-02-12T05:19:20.921Z,0.00
2023-02-12T05:20:20.901Z,0.00
2023-02-12T05:21:20.898Z,0.00
2023-02-12T05:22:20.878Z,0.00
2023-02-12T05:23:20.880Z,0.00
2023-02-12T05:24:20.851Z,0.00
2023-02-12T05:25:20.848Z,0.00
2023-02-12T05:26:20.846Z,0.00
2023-02-12T05:27:20.832Z,0.00
2023-02-12T05:28:20.831Z,0.00
2023-02-12T05:29:20.791Z,0.00
2023-02-12T05:30:20.779Z,0.00
2023-02-12T05:31:21.601Z,0.00
2023-02-12T05:32:20.790Z,0.00
2023-02-12T05:33:20.758Z,0.00
2023-02-12T05:34:20.729Z,0.00
2023-02-12T05:35:20.723Z,0.00
2023-02-12T05:36:20.714Z,0.00
2023-02-12T05:37:20.688Z,0.00
2023-02-12T05:38:20.689Z,0.00
2023-02-12T05:39:20.669Z,0.00
2023-02-12T05:40:20.656Z,0.00
2023-02-12T05:41:20.653Z,0.00
2023-02-12T05:42:20.625Z,0.00
2023-02-12T05:43:20.635Z,0.00
2023-02-12T05:44:20.612Z,0.00
2023-02-12T05:45:20.584Z,0.00
2023-02-12T05:46:20.603Z,0.00
2023-02-12T05:47:20.564Z,0.00
2023-02-12T05:48:20.580Z,0.00
2023-02-12T05:49:20.541Z,0.00
2023-02-12T05:50:20.524Z,0.00
2023-02-12T05:51:20.515Z,0.00
2023-02-12T05:52:20.493Z,0.00
2023-02-12T05:53:20.491Z,0.00
2023-02-12T05:54:20.463Z,0.00
2023-02-12T05:55:20.452Z,0.00
2023-02-12T05:56:20.455Z,0.00
2023-02-12T05:57:20.429Z,0.00
2023-02-12T05:58:20.435Z,0.00
2023-02-12T05:59:20.408Z,0.00
2023-02-12T06:00:20.391Z,0.00
2023-02-12T06:01:20.372Z,0.00
2023-02-12T06:02:20.408Z,0.00
2023-02-12T06:03:20.370Z,0.00
2023-02-12T06:04:20.413Z,0.00
2023-02-12T06:05:20.328Z,0.00
2023-02-12T06:06:20.324Z,0.00
2023-02-12T06:07:20.299Z,0.00
2023-02-12T06:08:20.301Z,0.00
2023-02-12T06:09:20.273Z,0.00
2023-02-12T06:10:20.268Z,0.00
2023-02-12T06:11:20.267Z,0.00
2023-02-12T06:12:20.238Z,0.00
2023-02-12T06:13:20.236Z,0.00
2023-02-12T06:14:20.227Z,0.00
2023-02-12T06:15:20.193Z,0.00
2023-02-12T06:16:20.258Z,0.00
2023-02-12T06:17:20.166Z,0.00
2023-02-12T06:18:20.168Z,0.00
2023-02-12T06:19:20.153Z,0.00
2023-02-12T06:20:20.138Z,0.00
2023-02-12T06:21:20.126Z,0.00
2023-02-12T06:22:20.114Z,4.00
2023-02-12T06:23:20.120Z,0.00
2023-02-12T06:24:20.105Z,0.00
2023-02-12T06:25:20.070Z,4.00
2023-02-12T06:26:20.085Z,0.00
2023-02-12T06:27:20.055Z,4.00
2023-02-12T06:28:20.065Z,0.00
2023-02-12T06:29:20.027Z,0.00
2023-02-12T06:30:20.016Z,4.00
2023-02-12T06:31:20.136Z,4.00
2023-02-12T06:32:20.079Z,8.00
2023-02-12T06:33:19.972Z,8.00
2023-02-12T06:34:19.985Z,12.00
2023-02-12T06:35:19.941Z,12.00
2023-02-12T06:36:19.931Z,12.00
2023-02-12T06:37:19.908Z,12.00
2023-02-12T06:38:19.912Z,16.00
2023-02-12T06:39:19.899Z,20.00
2023-02-12T06:40:19.878Z,20.00
2023-02-12T06:41:19.865Z,24.00
2023-02-12T06:42:19.852Z,28.00
2023-02-12T06:43:19.838Z,32.00
2023-02-12T06:44:19.847Z,32.00
2023-02-12T06:45:19.811Z,36.00
2023-02-12T06:46:19.856Z,40.00
2023-02-12T06:47:19.788Z,44.00
2023-02-12T06:48:19.781Z,52.00
2023-02-12T06:49:19.777Z,56.00
2023-02-12T06:50:19.756Z,60.00
2023-02-12T06:51:19.736Z,64.00
2023-02-12T06:52:19.735Z,72.00
2023-02-12T06:53:19.708Z,80.00
2023-02-12T06:54:19.713Z,92.00
2023-02-12T06:55:19.677Z,100.00
2023-02-12T06:56:19.681Z,112.00
2023-02-12T06:57:19.664Z,124.00
2023-02-12T06:58:19.650Z,132.00
2023-02-12T06:59:19.639Z,140.00
2023-02-12T07:00:19.624Z,152.00
2023-02-12T07:01:19.624Z,164.00
2023-02-12T07:02:19.596Z,172.00
2023-02-12T07:03:19.576Z,188.00
2023-02-12T07:04:19.661Z,204.00
2023-02-12T07:05:19.558Z,220.00
2023-02-12T07:06:19.591Z,232.00
2023-02-12T07:07:19.534Z,248.00
2023-02-12T07:08:19.516Z,260.00
2023-02-12T07:09:19.530Z,276.00
2023-02-12T07:10:19.504Z,292.00
2023-02-12T07:11:19.562Z,308.00
2023-02-12T07:12:19.475Z,320.00
2023-02-12T07:13:19.453Z,328.00
2023-02-12T07:14:19.457Z,340.00
2023-02-12T07:15:19.424Z,352.00
2023-02-12T07:16:19.485Z,364.00
2023-02-12T07:17:19.405Z,376.00
2023-02-12T07:18:19.393Z,388.00
2023-02-12T07:19:19.392Z,408.00
2023-02-12T07:20:19.367Z,420.00
2023-02-12T07:21:19.343Z,440.00
2023-02-12T07:22:19.341Z,464.00
2023-02-12T07:23:19.327Z,484.00
2023-02-12T07:24:19.338Z,504.00
2023-02-12T07:25:19.292Z,532.00
2023-02-12T07:26:19.294Z,552.00
2023-02-12T07:27:19.276Z,572.00
2023-02-12T07:28:19.302Z,592.00
2023-02-12T07:29:19.255Z,616.00
2023-02-12T07:30:19.233Z,640.00
2023-02-12T07:31:19.421Z,660.00
2023-02-12T07:32:19.212Z,684.00
2023-02-12T07:33:19.191Z,704.00
2023-02-12T07:34:19.191Z,732.00
2023-02-12T07:35:19.161Z,764.00
2023-02-12T07:36:19.181Z,804.00
2023-02-12T07:37:19.142Z,844.00
2023-02-12T07:38:19.130Z,880.00
2023-02-12T07:39:19.130Z,904.00
2023-02-12T07:40:19.112Z,928.00
2023-02-12T07:41:19.097Z,948.00
2023-02-12T07:42:19.078Z,968.00
2023-02-12T07:43:19.060Z,996.00
2023-02-12T07:44:19.069Z,1016.00
2023-02-12T07:45:19.039Z,1040.00
2023-02-12T07:46:19.134Z,1060.00
2023-02-12T07:47:19.009Z,1088.00
2023-02-12T07:48:18.999Z,1120.00
2023-02-12T07:49:18.998Z,1152.00
2023-02-12T07:50:18.981Z,1196.00
2023-02-12T07:51:18.969Z,1236.00
2023-02-12T07:52:18.950Z,1280.00
2023-02-12T07:53:18.939Z,1320.00
2023-02-12T07:54:18.941Z,1356.00
2023-02-12T07:55:18.917Z,1380.00
2023-02-12T07:56:18.907Z,1396.00
2023-02-12T07:57:18.878Z,1404.00
2023-02-12T07:58:18.869Z,1400.00
2023-02-12T07:59:18.873Z,1404.00
2023-02-12T08:00:18.856Z,1420.00
2023-02-12T08:01:18.836Z,1444.00
2023-02-12T08:02:18.871Z,1476.00
2023-02-12T08:03:18.817Z,1496.00
2023-02-12T08:04:18.894Z,1520.00
2023-02-12T08:05:18.793Z,1544.00
2023-02-12T08:06:18.779Z,1572.00
2023-02-12T08:07:18.757Z,1600.00
2023-02-12T08:08:18.756Z,1628.00
2023-02-12T08:09:18.754Z,1644.00
2023-02-12T08:10:18.728Z,1652.00
2023-02-12T08:11:18.708Z,1656.00
2023-02-12T08:12:18.706Z,1664.00
2023-02-12T08:13:18.676Z,1672.00
2023-02-12T08:14:18.696Z,1672.00
2023-02-12T08:15:18.664Z,1676.00
2023-02-12T08:16:18.674Z,1696.00
2023-02-12T08:17:18.637Z,1728.00
2023-02-12T08:18:18.616Z,1760.00
2023-02-12T08:19:21.950Z,1772.00
2023-02-12T08:20:19.587Z,1776.00
2023-02-12T08:21:18.588Z,1788.00
2023-02-12T08:22:18.576Z,1804.00
2023-02-12T08:23:25.613Z,1820.00
2023-02-12T08:24:18.555Z,1828.00
2023-02-12T08:25:18.546Z,1828.00
2023-02-12T08:26:18.512Z,1812.00
2023-02-12T08:27:18.505Z,1792.00
2023-02-12T08:28:18.542Z,1784.00
2023-02-12T08:29:18.480Z,1772.00
2023-02-12T08:30:18.473Z,1780.00
2023-02-12T08:31:18.499Z,1808.00
2023-02-12T08:32:18.526Z,1848.00
2023-02-12T08:33:18.435Z,1872.00
2023-02-12T08:34:18.463Z,1860.00
2023-02-12T08:35:18.415Z,1828.00
2023-02-12T08:36:18.386Z,1812.00
2023-02-12T08:37:18.382Z,1836.00
2023-02-12T08:38:18.350Z,1896.00
2023-02-12T08:39:18.349Z,1972.00
2023-02-12T08:40:18.341Z,2024.00
2023-02-12T08:41:20.615Z,2012.00
2023-02-12T08:42:18.301Z,1952.00
2023-02-12T08:43:18.292Z,1884.00
2023-02-12T08:44:18.300Z,1856.00
2023-02-12T08:45:18.284Z,1868.00
2023-02-12T08:46:18.305Z,1896.00
2023-02-12T08:47:18.248Z,1924.00
2023-02-12T08:48:18.229Z,1936.00
2023-02-12T08:49:18.223Z,1928.00
2023-02-12T08:50:18.216Z,1920.00
2023-02-12T08:51:18.185Z,1928.00
2023-02-12T08:52:18.178Z,1964.00
2023-02-12T08:53:18.163Z,2016.00
2023-02-12T08:54:18.208Z,2064.00
2023-02-12T08:55:18.143Z,2088.00
2023-02-12T08:56:18.128Z,2084.00
2023-02-12T08:57:18.115Z,2064.00
2023-02-12T08:58:18.093Z,2056.00
2023-02-12T08:59:18.085Z,2060.00
2023-02-12T09:00:18.092Z,2092.00
2023-02-12T09:01:18.066Z,2140.00
2023-02-12T09:02:18.054Z,2200.00
2023-02-12T09:03:18.029Z,2276.00
2023-02-12T09:04:18.187Z,2360.00
2023-02-12T09:05:18.016Z,2468.00
2023-02-12T09:06:17.991Z,2564.00
2023-02-12T09:07:17.999Z,2596.00
2023-02-12T09:08:17.969Z,2564.00
2023-02-12T09:09:17.948Z,2548.00
2023-02-12T09:10:17.942Z,2560.00
2023-02-12T09:11:17.927Z,2620.00
2023-02-12T09:12:17.909Z,2716.00
2023-02-12T09:13:17.896Z,2816.00
2023-02-12T09:14:17.877Z,2888.00
2023-02-12T09:15:17.878Z,2912.00
2023-02-12T09:16:17.882Z,2892.00
2023-02-12T09:17:17.847Z,2900.00
2023-02-12T09:18:17.826Z,2964.00
2023-02-12T09:19:17.817Z,3088.00
2023-02-12T09:20:17.825Z,3280.00
2023-02-12T09:21:17.798Z,3528.00
2023-02-12T09:22:17.780Z,3788.00
2023-02-12T09:23:17.767Z,4044.00
2023-02-12T09:24:17.797Z,4304.00
2023-02-12T09:25:17.747Z,4612.00
2023-02-12T09:26:17.727Z,4956.00
2023-02-12T09:27:17.716Z,5236.00
2023-02-12T09:28:17.719Z,5432.00
2023-02-12T09:29:17.696Z,5544.00
2023-02-12T09:30:17.688Z,5648.00
2023-02-12T09:31:17.806Z,5780.00
2023-02-12T09:32:17.647Z,5988.00
2023-02-12T09:33:17.636Z,6168.00
2023-02-12T09:34:17.627Z,6168.00
2023-02-12T09:35:17.627Z,5924.00
2023-02-12T09:36:17.623Z,5612.00
2023-02-12T09:37:17.594Z,5328.00
2023-02-12T09:38:17.568Z,5064.00
2023-02-12T09:39:17.580Z,4920.00
2023-02-12T09:40:17.557Z,4736.00
2023-02-12T09:41:17.542Z,4492.00
2023-02-12T09:42:17.524Z,4240.00
2023-02-12T09:43:17.506Z,4068.00
2023-02-12T09:44:17.498Z,3976.00
2023-02-12T09:45:17.500Z,3920.00
2023-02-12T09:46:17.510Z,3868.00
2023-02-12T09:47:17.462Z,3792.00
2023-02-12T09:48:17.466Z,3692.00
2023-02-12T09:49:17.437Z,3620.00
2023-02-12T09:50:17.435Z,3592.00
2023-02-12T09:51:17.409Z,3632.00
2023-02-12T09:52:17.415Z,3728.00
2023-02-12T09:53:17.384Z,3840.00
2023-02-12T09:54:17.376Z,3936.00
2023-02-12T09:55:17.390Z,4032.00
2023-02-12T09:56:17.357Z,4160.00
2023-02-12T09:57:17.337Z,4276.00
2023-02-12T09:58:17.329Z,4312.00
2023-02-12T09:59:17.308Z,4400.00
2023-02-12T10:00:17.310Z,4464.00
2023-02-12T10:01:17.322Z,4616.00
2023-02-12T10:02:17.280Z,4844.00
2023-02-12T10:03:17.268Z,5044.00
2023-02-12T10:04:17.261Z,5108.00
2023-02-12T10:05:17.269Z,5068.00
2023-02-12T10:06:17.232Z,5064.00
2023-02-12T10:07:17.222Z,5144.00
2023-02-12T10:08:17.209Z,5344.00
2023-02-12T10:09:17.219Z,5600.00
2023-02-12T10:10:17.193Z,5812.00
2023-02-12T10:11:17.175Z,5928.00
2023-02-12T10:12:17.149Z,5980.00
2023-02-12T10:13:17.139Z,6000.00
2023-02-12T10:14:17.130Z,6044.00
2023-02-12T10:15:17.121Z,6036.00
2023-02-12T10:16:17.214Z,5896.00
2023-02-12T10:17:17.079Z,5680.00
2023-02-12T10:18:17.072Z,5572.00
2023-02-12T10:19:17.060Z,5576.00
2023-02-12T10:20:17.061Z,5680.00
2023-02-12T10:21:17.030Z,5744.00
2023-02-12T10:22:17.020Z,5644.00
2023-02-12T10:23:16.999Z,5416.00
2023-02-12T10:24:17.023Z,5220.00
2023-02-12T10:25:16.990Z,5088.00
2023-02-12T10:26:16.969Z,4980.00
2023-02-12T10:27:16.993Z,4796.00
2023-02-12T10:28:16.997Z,4548.00
2023-02-12T10:29:16.928Z,4288.00
2023-02-12T10:30:16.915Z,4088.00
2023-02-12T10:31:16.969Z,4004.00
2023-02-12T10:32:16.906Z,3980.00
2023-02-12T10:33:16.880Z,3960.00
2023-02-12T10:34:16.864Z,3900.00
2023-02-12T10:35:16.844Z,3832.00
2023-02-12T10:36:16.846Z,3772.00
2023-02-12T10:37:16.813Z,3748.00
2023-02-12T10:38:16.806Z,3748.00
2023-02-12T10:39:16.783Z,3732.00
2023-02-12T10:40:16.819Z,3688.00
2023-02-12T10:41:16.774Z,3632.00
2023-02-12T10:42:16.760Z,3612.00
2023-02-12T10:43:16.734Z,3624.00
2023-02-12T10:44:16.723Z,3652.00
2023-02-12T10:45:16.729Z,3664.00
2023-02-12T10:46:16.742Z,3684.00
2023-02-12T10:47:16.680Z,3688.00
2023-02-12T10:48:17.038Z,3680.00
2023-02-12T10:49:16.654Z,3684.00
2023-02-12T10:50:16.640Z,3704.00
2023-02-12T10:51:16.643Z,3752.00
2023-02-12T10:52:16.624Z,3824.00
2023-02-12T10:53:16.607Z,3920.00
2023-02-12T10:54:16.619Z,4020.00
2023-02-12T10:55:16.570Z,4096.00
2023-02-12T10:56:16.620Z,4104.00
2023-02-12T10:57:16.546Z,4064.00
2023-02-12T10:58:16.539Z,4052.00
2023-02-12T10:59:16.517Z,4088.00
2023-02-12T11:00:16.507Z,4124.00
2023-02-12T11:01:16.497Z,4148.00
2023-02-12T11:02:16.486Z,4148.00
2023-02-12T11:03:16.467Z,4160.00
2023-02-12T11:04:16.457Z,4224.00
2023-02-12T11:05:16.457Z,4272.00
2023-02-12T11:06:16.449Z,4260.00
2023-02-12T11:07:16.410Z,4232.00
2023-02-12T11:08:16.397Z,4244.00
2023-02-12T11:09:16.386Z,4352.00
2023-02-12T11:10:16.376Z,4556.00
2023-02-12T11:11:16.384Z,4856.00
2023-02-12T11:12:16.365Z,5152.00
2023-02-12T11:13:16.335Z,5080.00
2023-02-12T11:14:16.331Z,4692.00
2023-02-12T11:15:16.306Z,4356.00
2023-02-12T11:16:16.351Z,4124.00
2023-02-12T11:17:16.292Z,3984.00
2023-02-12T11:18:16.270Z,3928.00
2023-02-12T11:19:16.253Z,3900.00
2023-02-12T11:20:16.261Z,3892.00
2023-02-12T11:21:16.244Z,3948.00
2023-02-12T11:22:16.223Z,4072.00
2023-02-12T11:23:16.198Z,4248.00
2023-02-12T11:24:16.186Z,4456.00
2023-02-12T11:25:16.216Z,4680.00
2023-02-12T11:26:16.176Z,4968.00
2023-02-12T11:27:16.210Z,5372.00
2023-02-12T11:28:16.175Z,5884.00
2023-02-12T11:29:16.166Z,6396.00
2023-02-12T11:30:16.114Z,6752.00
2023-02-12T11:31:16.213Z,6984.00
2023-02-12T11:32:16.082Z,7120.00
2023-02-12T11:33:16.083Z,7056.00
2023-02-12T11:34:16.053Z,6616.00
2023-02-12T11:35:16.045Z,6052.00
2023-02-12T11:36:16.032Z,5516.00
2023-02-12T11:37:16.024Z,5172.00
2023-02-12T11:38:16.004Z,4992.00
2023-02-12T11:39:16.015Z,4844.00
2023-02-12T11:40:15.982Z,4668.00
2023-02-12T11:41:15.980Z,4516.00
2023-02-12T11:42:15.947Z,4436.00
2023-02-12T11:43:15.944Z,4472.00
2023-02-12T11:44:15.926Z,4652.00
2023-02-12T11:45:15.914Z,4940.00
2023-02-12T11:46:16.031Z,5244.00
2023-02-12T11:47:15.894Z,5448.00
2023-02-12T11:48:15.888Z,5444.00
2023-02-12T11:49:15.868Z,5340.00
2023-02-12T11:50:15.876Z,5324.00
2023-02-12T11:51:15.861Z,5404.00
2023-02-12T11:52:15.816Z,5500.00
2023-02-12T11:53:15.815Z,5564.00
2023-02-12T11:54:15.815Z,5620.00
2023-02-12T11:55:15.784Z,5676.00
2023-02-12T11:56:15.777Z,5696.00
2023-02-12T11:57:15.755Z,5744.00
2023-02-12T11:58:15.739Z,5904.00
2023-02-12T11:59:15.723Z,6048.00
2023-02-12T12:00:15.710Z,6020.00
2023-02-12T12:01:17.003Z,5864.00
2023-02-12T12:02:15.842Z,5652.00
2023-02-12T12:03:15.728Z,5512.00
2023-02-12T12:04:15.655Z,5476.00
2023-02-12T12:05:15.652Z,5432.00
2023-02-12T12:06:15.644Z,5320.00
2023-02-12T12:07:15.649Z,5168.00
2023-02-12T12:08:16.756Z,5068.00
2023-02-12T12:09:15.593Z,5036.00
2023-02-12T12:10:15.581Z,5032.00
2023-02-12T12:11:15.581Z,5092.00
2023-02-12T12:12:15.551Z,5108.00
2023-02-12T12:13:15.550Z,4996.00
2023-02-12T12:14:15.532Z,4792.00
2023-02-12T12:15:15.524Z,4584.00
2023-02-12T12:16:15.588Z,4376.00
2023-02-12T12:17:15.490Z,4184.00
2023-02-12T12:18:15.472Z,4020.00
2023-02-12T12:19:15.470Z,3892.00
2023-02-12T12:20:15.460Z,3764.00
2023-02-12T12:21:15.460Z,3640.00
2023-02-12T12:22:15.444Z,3528.00
2023-02-12T12:23:15.445Z,3468.00
2023-02-12T12:24:15.401Z,3460.00
2023-02-12T12:25:15.404Z,3468.00
2023-02-12T12:26:15.391Z,3484.00
2023-02-12T12:27:15.378Z,3512.00
2023-02-12T12:28:15.371Z,3572.00
2023-02-12T12:29:15.367Z,3624.00
2023-02-12T12:30:15.327Z,3672.00
2023-02-12T12:31:15.319Z,3732.00
2023-02-12T12:32:15.300Z,3844.00
2023-02-12T12:33:15.290Z,4016.00
2023-02-12T12:34:15.290Z,4148.00
2023-02-12T12:35:15.290Z,4200.00
2023-02-12T12:36:15.241Z,4164.00
2023-02-12T12:37:15.250Z,4100.00
2023-02-12T12:38:15.219Z,4108.00
2023-02-12T12:39:15.209Z,4140.00
2023-02-12T12:40:15.200Z,4132.00
2023-02-12T12:41:15.189Z,4088.00
2023-02-12T12:42:15.179Z,4068.00
2023-02-12T12:43:15.159Z,4112.00
2023-02-12T12:44:15.138Z,4220.00
2023-02-12T12:45:15.141Z,4348.00
2023-02-12T12:46:15.152Z,4504.00
2023-02-12T12:47:15.148Z,4692.00
2023-02-12T12:48:15.093Z,4796.00
2023-02-12T12:49:15.097Z,4772.00
2023-02-12T12:50:15.067Z,4624.00
2023-02-12T12:51:15.061Z,4468.00
2023-02-12T12:52:15.048Z,4364.00
2023-02-12T12:53:15.038Z,4372.00
2023-02-12T12:54:15.012Z,4412.00
2023-02-12T12:55:15.008Z,4400.00
2023-02-12T12:56:14.992Z,4412.00
2023-02-12T12:57:14.996Z,4468.00
2023-02-12T12:58:14.967Z,4596.00
2023-02-12T12:59:14.948Z,4796.00
2023-02-12T13:00:14.937Z,4948.00
2023-02-12T13:01:14.977Z,4980.00
2023-02-12T13:02:14.962Z,4876.00
2023-02-12T13:03:14.906Z,4580.00
2023-02-12T13:04:14.895Z,4260.00
2023-02-12T13:05:14.880Z,4056.00
2023-02-12T13:06:14.860Z,3944.00
2023-02-12T13:07:14.874Z,3920.00
2023-02-12T13:08:14.830Z,3860.00
2023-02-12T13:09:14.830Z,3760.00
2023-02-12T13:10:14.808Z,3624.00
2023-02-12T13:11:14.809Z,3472.00
2023-02-12T13:12:14.802Z,3272.00
2023-02-12T13:13:14.780Z,3120.00
2023-02-12T13:14:14.757Z,2996.00
2023-02-12T13:15:14.751Z,2900.00
2023-02-12T13:16:14.772Z,2816.00
2023-02-12T13:17:14.734Z,2720.00
2023-02-12T13:18:14.716Z,2604.00
2023-02-12T13:19:14.701Z,2520.00
2023-02-12T13:20:14.694Z,2476.00
2023-02-12T13:21:14.678Z,2456.00
2023-02-12T13:22:14.682Z,2456.00
2023-02-12T13:23:14.648Z,2472.00
2023-02-12T13:24:14.641Z,2476.00
2023-02-12T13:25:14.627Z,2468.00
2023-02-12T13:26:14.611Z,2472.00
2023-02-12T13:27:14.611Z,2512.00
2023-02-12T13:28:14.676Z,2568.00
2023-02-12T13:29:14.586Z,2640.00
2023-02-12T13:30:14.571Z,2696.00
2023-02-12T13:31:32.069Z,2708.00
2023-02-12T13:32:15.591Z,2676.00
2023-02-12T13:33:14.520Z,2624.00
2023-02-12T13:34:14.500Z,2576.00
2023-02-12T13:35:14.496Z,2548.00
2023-02-12T13:36:14.476Z,2540.00
2023-02-12T13:37:14.469Z,2532.00
2023-02-12T13:38:14.457Z,2504.00
2023-02-12T13:39:14.438Z,2448.00
2023-02-12T13:40:14.431Z,2392.00
2023-02-12T13:41:14.418Z,2340.00
2023-02-12T13:42:14.387Z,2304.00
2023-02-12T13:43:14.406Z,2296.00
2023-02-12T13:44:14.367Z,2296.00
2023-02-12T13:45:14.363Z,2304.00
2023-02-12T13:46:14.378Z,2320.00
2023-02-12T13:47:14.326Z,2328.00
2023-02-12T13:48:14.327Z,2340.00
2023-02-12T13:49:14.307Z,2356.00
2023-02-12T13:50:14.286Z,2376.00
2023-02-12T13:51:14.281Z,2376.00
2023-02-12T13:52:14.280Z,2352.00
2023-02-12T13:53:14.260Z,2336.00
2023-02-12T13:54:14.226Z,2328.00
2023-02-12T13:55:14.219Z,2316.00
2023-02-12T13:56:14.206Z,2296.00
2023-02-12T13:57:14.198Z,2276.00
2023-02-12T13:58:14.192Z,2256.00
2023-02-12T13:59:14.166Z,2228.00
2023-02-12T14:00:14.155Z,2188.00
2023-02-12T14:01:14.152Z,2160.00
2023-02-12T14:02:14.153Z,2148.00
2023-02-12T14:03:14.128Z,2128.00
2023-02-12T14:04:14.104Z,2104.00
2023-02-12T14:05:14.086Z,2080.00
2023-02-12T14:06:14.101Z,2036.00
2023-02-12T14:07:14.059Z,1984.00
2023-02-12T14:08:14.065Z,1940.00
2023-02-12T14:09:14.034Z,1940.00
2023-02-12T14:10:14.023Z,1948.00
2023-02-12T14:11:14.014Z,1964.00
2023-02-12T14:12:13.992Z,1984.00
2023-02-12T14:13:13.987Z,2008.00
2023-02-12T14:14:13.972Z,2020.00
2023-02-12T14:15:13.988Z,1996.00
2023-02-12T14:16:13.968Z,1956.00
2023-02-12T14:17:13.921Z,1924.00
2023-02-12T14:18:13.922Z,1884.00
2023-02-12T14:19:13.894Z,1832.00
2023-02-12T14:20:13.908Z,1784.00
2023-02-12T14:21:13.904Z,1744.00
2023-02-12T14:22:13.865Z,1704.00
2023-02-12T14:23:13.851Z,1656.00
2023-02-12T14:24:20.900Z,1612.00
2023-02-12T14:25:13.858Z,1564.00
2023-02-12T14:26:13.805Z,1520.00
2023-02-12T14:27:13.797Z,1500.00
2023-02-12T14:28:13.829Z,1476.00
2023-02-12T14:29:13.767Z,1448.00
2023-02-12T14:30:13.807Z,1420.00
2023-02-12T14:31:13.821Z,1408.00
2023-02-12T14:32:13.724Z,1396.00
2023-02-12T14:33:13.739Z,1388.00
2023-02-12T14:34:13.704Z,1376.00
2023-02-12T14:35:13.688Z,1368.00
2023-02-12T14:36:13.675Z,1356.00
2023-02-12T14:37:13.665Z,1336.00
2023-02-12T14:38:13.655Z,1320.00
2023-02-12T14:39:13.635Z,1296.00
2023-02-12T14:40:13.617Z,1252.00
2023-02-12T14:41:13.607Z,1208.00
2023-02-12T14:42:13.587Z,1176.00
2023-02-12T14:43:13.593Z,1168.00
2023-02-12T14:44:13.566Z,1172.00
2023-02-12T14:45:13.554Z,1152.00
2023-02-12T14:46:13.612Z,1120.00
2023-02-12T14:47:13.524Z,1088.00
2023-02-12T14:48:13.527Z,1060.00
2023-02-12T14:49:13.504Z,1052.00
2023-02-12T14:50:13.482Z,1044.00
2023-02-12T14:51:13.475Z,1040.00
2023-02-12T14:52:13.473Z,1024.00
2023-02-12T14:53:13.451Z,1004.00
2023-02-12T14:54:13.432Z,976.00
2023-02-12T14:55:13.431Z,960.00
2023-02-12T14:56:13.401Z,964.00
2023-02-12T14:57:13.401Z,964.00
2023-02-12T14:58:13.389Z,968.00
2023-02-12T14:59:13.370Z,960.00
2023-02-12T15:00:13.350Z,936.00
2023-02-12T15:01:13.361Z,916.00
2023-02-12T15:02:13.322Z,900.00
2023-02-12T15:03:13.343Z,884.00
2023-02-12T15:04:13.321Z,860.00
2023-02-12T15:05:13.312Z,848.00
2023-02-12T15:06:13.279Z,828.00
2023-02-12T15:07:13.261Z,808.00
2023-02-12T15:08:13.248Z,796.00
2023-02-12T15:09:13.248Z,792.00
2023-02-12T15:10:13.220Z,784.00
2023-02-12T15:11:13.208Z,768.00
2023-02-12T15:12:13.189Z,756.00
2023-02-12T15:13:13.181Z,752.00
2023-02-12T15:14:13.168Z,752.00
2023-02-12T15:15:13.165Z,740.00
2023-02-12T15:16:13.188Z,724.00
2023-02-12T15:17:13.127Z,712.00
2023-02-12T15:18:13.108Z,688.00
2023-02-12T15:19:13.108Z,668.00
2023-02-12T15:20:13.078Z,652.00
2023-02-12T15:21:13.078Z,636.00
2023-02-12T15:22:13.059Z,624.00
2023-02-12T15:23:13.038Z,616.00
2023-02-12T15:24:13.042Z,596.00
2023-02-12T15:25:13.029Z,572.00
2023-02-12T15:26:13.008Z,556.00
2023-02-12T15:27:12.990Z,540.00
2023-02-12T15:28:13.001Z,524.00
2023-02-12T15:29:12.979Z,516.00
2023-02-12T15:30:20.962Z,512.00
2023-02-12T15:31:14.091Z,500.00
2023-02-12T15:32:12.919Z,484.00
2023-02-12T15:33:14.510Z,472.00
2023-02-12T15:34:12.941Z,464.00
2023-02-12T15:35:12.890Z,460.00
2023-02-12T15:36:12.868Z,456.00
2023-02-12T15:37:12.868Z,460.00
2023-02-12T15:38:12.861Z,456.00
2023-02-12T15:39:12.838Z,452.00
2023-02-12T15:40:12.818Z,448.00
2023-02-12T15:41:12.818Z,432.00
2023-02-12T15:42:12.788Z,416.00
2023-02-12T15:43:12.786Z,412.00
2023-02-12T15:44:12.775Z,412.00
2023-02-12T15:45:12.763Z,412.00
2023-02-12T15:46:12.760Z,396.00
2023-02-12T15:47:12.779Z,388.00
2023-02-12T15:48:12.721Z,380.00
2023-02-12T15:49:12.715Z,368.00
2023-02-12T15:50:12.689Z,360.00
2023-02-12T15:51:12.685Z,356.00
2023-02-12T15:52:12.657Z,348.00
2023-02-12T15:53:12.646Z,344.00
2023-02-12T15:54:12.646Z,336.00
2023-02-12T15:55:12.630Z,328.00
2023-02-12T15:56:12.611Z,324.00
2023-02-12T15:57:12.605Z,316.00
2023-02-12T15:58:12.587Z,304.00
2023-02-12T15:59:12.577Z,296.00
2023-02-12T16:00:12.547Z,284.00
2023-02-12T16:01:12.547Z,280.00
2023-02-12T16:02:12.526Z,268.00
2023-02-12T16:03:12.517Z,256.00
2023-02-12T16:04:12.573Z,248.00
2023-02-12T16:05:12.488Z,236.00
2023-02-12T16:06:12.475Z,228.00
2023-02-12T16:07:12.464Z,220.00
2023-02-12T16:08:12.445Z,216.00
2023-02-12T16:09:12.460Z,208.00
2023-02-12T16:10:12.419Z,196.00
2023-02-12T16:11:12.409Z,188.00
2023-02-12T16:12:12.394Z,188.00
2023-02-12T16:13:12.384Z,176.00
2023-02-12T16:14:12.375Z,172.00
2023-02-12T16:15:12.355Z,164.00
2023-02-12T16:16:12.400Z,156.00
2023-02-12T16:17:12.335Z,148.00
2023-02-12T16:18:12.353Z,144.00
2023-02-12T16:19:12.305Z,136.00
2023-02-12T16:20:12.284Z,132.00
2023-02-12T16:21:12.284Z,128.00
2023-02-12T16:22:12.264Z,116.00
2023-02-12T16:23:12.254Z,112.00
2023-02-12T16:24:12.243Z,108.00
2023-02-12T16:25:12.224Z,100.00
2023-02-12T16:26:12.205Z,96.00
2023-02-12T16:27:12.198Z,92.00
2023-02-12T16:28:12.229Z,88.00
2023-02-12T16:29:12.193Z,84.00
2023-02-12T16:30:12.172Z,76.00
2023-02-12T16:31:12.263Z,72.00
2023-02-12T16:32:12.141Z,64.00
2023-02-12T16:33:12.115Z,60.00
2023-02-12T16:34:12.136Z,60.00
2023-02-12T16:35:12.162Z,52.00
2023-02-12T16:36:12.073Z,52.00
2023-02-12T16:37:12.063Z,44.00
2023-02-12T16:38:12.046Z,40.00
2023-02-12T16:39:12.042Z,40.00
2023-02-12T16:40:12.046Z,36.00
2023-02-12T16:41:12.014Z,32.00
2023-02-12T16:42:11.996Z,32.00
2023-02-12T16:43:11.992Z,28.00
2023-02-12T16:44:11.980Z,28.00
2023-02-12T16:45:12.002Z,24.00
2023-02-12T16:46:12.017Z,20.00
2023-02-12T16:47:11.955Z,16.00
2023-02-12T16:48:11.911Z,16.00
2023-02-12T16:49:11.942Z,12.00
2023-02-12T16:50:11.902Z,12.00
2023-02-12T16:51:11.881Z,8.00
2023-02-12T16:52:11.864Z,8.00
2023-02-12T16:53:11.869Z,8.00
2023-02-12T16:54:11.840Z,4.00
2023-02-12T16:55:11.850Z,8.00
2023-02-12T16:56:11.822Z,8.00
2023-02-12T16:57:11.812Z,4.00
2023-02-12T16:58:11.793Z,4.00
2023-02-12T16:59:11.780Z,0.00
2023-02-12T17:00:11.780Z,4.00
2023-02-12T17:01:11.831Z,0.00
2023-02-12T17:02:11.750Z,4.00
2023-02-12T17:03:11.755Z,0.00
2023-02-12T17:04:11.721Z,4.00
2023-02-12T17:05:11.711Z,0.00
2023-02-12T17:06:11.694Z,0.00
2023-02-12T17:07:11.691Z,0.00
2023-02-12T17:08:11.662Z,0.00
2023-02-12T17:09:11.656Z,0.00
2023-02-12T17:10:11.646Z,0.00
2023-02-12T17:11:11.634Z,0.00
2023-02-12T17:12:11.626Z,0.00
2023-02-12T17:13:11.614Z,0.00
2023-02-12T17:14:11.582Z,0.00
2023-02-12T17:15:11.581Z,0.00
2023-02-12T17:16:14.492Z,0.00
2023-02-12T17:17:12.550Z,0.00
2023-02-12T17:18:11.530Z,0.00
2023-02-12T17:19:11.520Z,0.00
2023-02-12T17:20:11.525Z,0.00
2023-02-12T17:21:11.491Z,0.00
2023-02-12T17:22:11.481Z,0.00
2023-02-12T17:23:11.475Z,0.00
2023-02-12T17:24:11.448Z,0.00
2023-02-12T17:25:11.444Z,0.00
2023-02-12T17:26:11.430Z,0.00
2023-02-12T17:27:11.410Z,0.00
2023-02-12T17:28:11.419Z,0.00
2023-02-12T17:29:11.393Z,0.00
2023-02-12T17:30:11.398Z,0.00
2023-02-12T17:31:11.443Z,0.00
2023-02-12T17:32:11.412Z,0.00
2023-02-12T17:33:11.339Z,0.00
2023-02-12T17:34:11.322Z,0.00
2023-02-12T17:35:11.324Z,0.00
2023-02-12T17:36:11.308Z,0.00
2023-02-12T17:37:11.284Z,0.00
2023-02-12T17:38:11.268Z,0.00
2023-02-12T17:39:11.258Z,0.00